To NAV CANADA Home Page Login to a new session Search on AWWS site Feedback and Comments Disclaimer Vers la page française équivalente Tips FAQ What's new on the site To the Forecasts and Observations / NOTAM section To "File a Flight Plan" website Publications and other links Update of the User's profile FIC Telephone Numbers My Weather Data Folder Route Weather Data Regional Weather Data Local Weather Data To the Forecasts and Observations / NOTAM section
Request Generated 04/18/2014 at 15:37:58 UTC . Weather information available at that time is displayed.

METAR/TAF

TALOYOAK/NU    

METAR CYYH 181500Z 18011KT 15SM FEW010 FEW040 BKN100 M22/M25 A2989 RMK ST1SC1AC1 IC SLP126=
METAR CYYH 181400Z 18010KT 15SM FEW040 SCT090 BKN200 M23/M27 A2991 RMK SC1AC0CI0 SLP134=
METAR CYYH 181300Z 17013KT 10SM VCFG FEW040 SCT080 BKN210 M25/M28 A2994 RMK SC1AC0CC0 SLP144=

TAF CYYH 181138Z 1812/1824 18012KT P6SM FEW008 FEW020 BKN070 TEMPO
1812/1815 1SM BR
FM181500 20010KT P6SM FEW100
RMK NXT FCST BY 181800Z=
Your time UTC time
Weather data provided by Environment Canada and NAV CANADA